sensor_id;sensor_type;location;lat;lon;timestamp;P1;durP1;ratioP1;P2;durP2;ratioP2
25838;SDS011;13669;50.186;27.062;2022-11-09T02:11:15;38.58;;;23.92;;
25838;SDS011;13669;50.186;27.062;2022-11-09T02:13:50;38.67;;;22.80;;
25838;SDS011;13669;50.186;27.062;2022-11-09T02:16:22;42.20;;;23.27;;
25838;SDS011;13669;50.186;27.062;2022-11-09T02:18:52;40.58;;;21.23;;
25838;SDS011;13669;50.186;27.062;2022-11-09T02:21:21;41.15;;;22.00;;
25838;SDS011;13669;50.186;27.062;2022-11-09T02:23:51;42.35;;;22.65;;
25838;SDS011;13669;50.186;27.062;2022-11-09T02:26:21;41.35;;;22.25;;
25838;SDS011;13669;50.186;27.062;2022-11-09T02:28:52;46.15;;;23.15;;
25838;SDS011;13669;50.186;27.062;2022-11-09T02:31:21;47.20;;;23.98;;
25838;SDS011;13669;50.186;27.062;2022-11-09T02:33:53;51.03;;;26.13;;
25838;SDS011;13669;50.186;27.062;2022-11-09T02:36:30;58.42;;;27.13;;
25838;SDS011;13669;50.186;27.062;2022-11-09T02:38:57;57.55;;;27.23;;
25838;SDS011;13669;50.186;27.062;2022-11-09T02:41:25;50.00;;;25.38;;
25838;SDS011;13669;50.186;27.062;2022-11-09T02:43:55;45.25;;;24.48;;
25838;SDS011;13669;50.186;27.062;2022-11-09T02:46:31;49.78;;;24.20;;
25838;SDS011;13669;50.186;27.062;2022-11-09T02:49:00;51.30;;;25.58;;
25838;SDS011;13669;50.186;27.062;2022-11-09T02:51:28;43.70;;;23.42;;
25838;SDS011;13669;50.186;27.062;2022-11-09T02:53:56;45.90;;;22.17;;
25838;SDS011;13669;50.186;27.062;2022-11-09T02:56:23;39.13;;;20.83;;
25838;SDS011;13669;50.186;27.062;2022-11-09T02:58:51;41.80;;;21.35;;
25838;SDS011;13669;50.186;27.062;2022-11-09T03:01:18;37.17;;;20.50;;
25838;SDS011;13669;50.186;27.062;2022-11-09T03:03:46;43.03;;;21.05;;
25838;SDS011;13669;50.186;27.062;2022-11-09T03:06:13;40.10;;;20.85;;
25838;SDS011;13669;50.186;27.062;2022-11-09T03:08:41;41.83;;;20.92;;
25838;SDS011;13669;50.186;27.062;2022-11-09T03:11:08;39.17;;;19.52;;
25838;SDS011;13669;50.186;27.062;2022-11-09T03:13:36;41.25;;;19.95;;
25838;SDS011;13669;50.186;27.062;2022-11-09T03:16:06;40.95;;;21.73;;
25838;SDS011;13669;50.186;27.062;2022-11-09T03:18:34;39.03;;;21.33;;
25838;SDS011;13669;50.186;27.062;2022-11-09T03:21:02;46.75;;;22.05;;
25838;SDS011;13669;50.186;27.062;2022-11-09T03:23:31;42.25;;;20.88;;
25838;SDS011;13669;50.186;27.062;2022-11-09T03:25:59;41.53;;;22.35;;
25838;SDS011;13669;50.186;27.062;2022-11-09T03:28:26;38.95;;;21.92;;
25838;SDS011;13669;50.186;27.062;2022-11-09T03:30:54;43.80;;;23.50;;
25838;SDS011;13669;50.186;27.062;2022-11-09T03:33:21;44.75;;;20.88;;
25838;SDS011;13669;50.186;27.062;2022-11-09T03:35:49;47.72;;;22.95;;
25838;SDS011;13669;50.186;27.062;2022-11-09T03:38:17;44.17;;;22.67;;
25838;SDS011;13669;50.186;27.062;2022-11-09T03:40:44;35.15;;;17.40;;
25838;SDS011;13669;50.186;27.062;2022-11-09T03:43:11;39.97;;;20.10;;
25838;SDS011;13669;50.186;27.062;2022-11-09T03:45:39;37.47;;;20.55;;
25838;SDS011;13669;50.186;27.062;2022-11-09T03:48:06;40.13;;;20.23;;
25838;SDS011;13669;50.186;27.062;2022-11-09T03:50:34;37.10;;;19.75;;
25838;SDS011;13669;50.186;27.062;2022-11-09T03:53:06;49.65;;;23.15;;
25838;SDS011;13669;50.186;27.062;2022-11-09T03:55:38;45.38;;;23.63;;
25838;SDS011;13669;50.186;27.062;2022-11-09T03:58:06;40.65;;;20.42;;
25838;SDS011;13669;50.186;27.062;2022-11-09T04:00:35;47.85;;;24.58;;
25838;SDS011;13669;50.186;27.062;2022-11-09T04:03:02;42.60;;;22.55;;
25838;SDS011;13669;50.186;27.062;2022-11-09T04:05:29;45.85;;;25.13;;
25838;SDS011;13669;50.186;27.062;2022-11-09T04:07:57;45.25;;;22.50;;
25838;SDS011;13669;50.186;27.062;2022-11-09T04:10:25;65.05;;;27.80;;
25838;SDS011;13669;50.186;27.062;2022-11-09T04:12:53;62.65;;;27.50;;
25838;SDS011;13669;50.186;27.062;2022-11-09T04:15:20;48.47;;;23.00;;
25838;SDS011;13669;50.186;27.062;2022-11-09T04:17:58;38.35;;;18.67;;
25838;SDS011;13669;50.186;27.062;2022-11-09T04:20:27;40.03;;;19.90;;
25838;SDS011;13669;50.186;27.062;2022-11-09T04:22:57;41.28;;;19.58;;
25838;SDS011;13669;50.186;27.062;2022-11-09T04:25:26;40.45;;;19.38;;
25838;SDS011;13669;50.186;27.062;2022-11-09T04:27:57;37.70;;;19.27;;
25838;SDS011;13669;50.186;27.062;2022-11-09T04:30:26;38.42;;;16.98;;
25838;SDS011;13669;50.186;27.062;2022-11-09T04:32:55;35.28;;;18.25;;
25838;SDS011;13669;50.186;27.062;2022-11-09T04:35:24;42.00;;;21.10;;
25838;SDS011;13669;50.186;27.062;2022-11-09T04:37:53;36.75;;;18.88;;
25838;SDS011;13669;50.186;27.062;2022-11-09T04:40:21;42.10;;;21.00;;
25838;SDS011;13669;50.186;27.062;2022-11-09T04:42:50;42.03;;;19.20;;
25838;SDS011;13669;50.186;27.062;2022-11-09T04:45:18;45.92;;;22.55;;
25838;SDS011;13669;50.186;27.062;2022-11-09T04:47:47;40.63;;;19.63;;
25838;SDS011;13669;50.186;27.062;2022-11-09T04:50:14;41.97;;;20.60;;
25838;SDS011;13669;50.186;27.062;2022-11-09T04:52:42;149.05;;;67.10;;
25838;SDS011;13669;50.186;27.062;2022-11-09T04:55:09;95.75;;;42.30;;
25838;SDS011;13669;50.186;27.062;2022-11-09T04:57:37;100.28;;;42.97;;
25838;SDS011;13669;50.186;27.062;2022-11-09T05:00:04;199.30;;;85.20;;
25838;SDS011;13669;50.186;27.062;2022-11-09T05:02:33;93.97;;;45.67;;
25838;SDS011;13669;50.186;27.062;2022-11-09T05:05:00;78.65;;;36.50;;
25838;SDS011;13669;50.186;27.062;2022-11-09T05:07:27;76.15;;;36.10;;
25838;SDS011;13669;50.186;27.062;2022-11-09T05:09:55;69.28;;;33.55;;
25838;SDS011;13669;50.186;27.062;2022-11-09T05:12:22;65.18;;;36.72;;
25838;SDS011;13669;50.186;27.062;2022-11-09T05:14:50;37.88;;;20.15;;
25838;SDS011;13669;50.186;27.062;2022-11-09T05:17:17;62.45;;;28.77;;
25838;SDS011;13669;50.186;27.062;2022-11-09T05:19:45;49.28;;;24.98;;
25838;SDS011;13669;50.186;27.062;2022-11-09T05:22:12;43.65;;;22.25;;
25838;SDS011;13669;50.186;27.062;2022-11-09T05:24:58;39.83;;;20.33;;
25838;SDS011;13669;50.186;27.062;2022-11-09T05:27:25;42.17;;;19.63;;
25838;SDS011;13669;50.186;27.062;2022-11-09T05:29:53;36.17;;;15.82;;
25838;SDS011;13669;50.186;27.062;2022-11-09T05:32:21;35.75;;;18.38;;
25838;SDS011;13669;50.186;27.062;2022-11-09T05:34:48;40.67;;;18.30;;
25838;SDS011;13669;50.186;27.062;2022-11-09T05:37:15;47.67;;;20.98;;
25838;SDS011;13669;50.186;27.062;2022-11-09T05:39:43;38.53;;;20.75;;
25838;SDS011;13669;50.186;27.062;2022-11-09T05:42:11;37.47;;;20.35;;
25838;SDS011;13669;50.186;27.062;2022-11-09T05:44:38;35.28;;;18.40;;
25838;SDS011;13669;50.186;27.062;2022-11-09T05:47:06;42.97;;;22.13;;
25838;SDS011;13669;50.186;27.062;2022-11-09T05:49:33;37.50;;;18.88;;
25838;SDS011;13669;50.186;27.062;2022-11-09T05:52:00;44.08;;;22.75;;
25838;SDS011;13669;50.186;27.062;2022-11-09T05:54:28;46.83;;;23.27;;
25838;SDS011;13669;50.186;27.062;2022-11-09T05:56:55;46.15;;;21.38;;
25838;SDS011;13669;50.186;27.062;2022-11-09T05:59:23;45.75;;;21.33;;
25838;SDS011;13669;50.186;27.062;2022-11-09T06:01:50;42.70;;;20.88;;
25838;SDS011;13669;50.186;27.062;2022-11-09T06:04:18;40.97;;;21.33;;
25838;SDS011;13669;50.186;27.062;2022-11-09T06:06:45;43.42;;;21.10;;
25838;SDS011;13669;50.186;27.062;2022-11-09T06:09:13;46.42;;;22.25;;
25838;SDS011;13669;50.186;27.062;2022-11-09T06:11:40;46.50;;;24.40;;
25838;SDS011;13669;50.186;27.062;2022-11-09T06:14:08;46.78;;;24.05;;
25838;SDS011;13669;50.186;27.062;2022-11-09T06:16:35;54.38;;;28.08;;
25838;SDS011;13669;50.186;27.062;2022-11-09T06:19:02;48.38;;;25.23;;
25838;SDS011;13669;50.186;27.062;2022-11-09T06:21:30;45.13;;;25.23;;
25838;SDS011;13669;50.186;27.062;2022-11-09T06:23:57;41.15;;;23.90;;
25838;SDS011;13669;50.186;27.062;2022-11-09T06:26:25;42.60;;;21.85;;
25838;SDS011;13669;50.186;27.062;2022-11-09T06:28:52;42.63;;;24.15;;
25838;SDS011;13669;50.186;27.062;2022-11-09T06:31:19;47.17;;;25.70;;
25838;SDS011;13669;50.186;27.062;2022-11-09T06:33:47;47.95;;;25.88;;
25838;SDS011;13669;50.186;27.062;2022-11-09T06:36:14;49.53;;;27.25;;
25838;SDS011;13669;50.186;27.062;2022-11-09T06:38:43;50.67;;;28.92;;
25838;SDS011;13669;50.186;27.062;2022-11-09T06:41:10;55.65;;;32.60;;
25838;SDS011;13669;50.186;27.062;2022-11-09T06:43:38;50.67;;;28.33;;
25838;SDS011;13669;50.186;27.062;2022-11-09T06:46:06;59.13;;;31.60;;
25838;SDS011;13669;50.186;27.062;2022-11-09T06:48:33;70.30;;;40.05;;
25838;SDS011;13669;50.186;27.062;2022-11-09T06:51:01;62.33;;;37.17;;
25838;SDS011;13669;50.186;27.062;2022-11-09T06:53:30;63.45;;;37.40;;
25838;SDS011;13669;50.186;27.062;2022-11-09T06:55:59;56.92;;;33.85;;
25838;SDS011;13669;50.186;27.062;2022-11-09T06:58:28;60.45;;;34.17;;
25838;SDS011;13669;50.186;27.062;2022-11-09T07:00:56;41.33;;;22.30;;
25838;SDS011;13669;50.186;27.062;2022-11-09T07:03:24;57.58;;;27.65;;
25838;SDS011;13669;50.186;27.062;2022-11-09T07:05:51;37.45;;;20.70;;
25838;SDS011;13669;50.186;27.062;2022-11-09T07:08:19;37.90;;;20.58;;
25838;SDS011;13669;50.186;27.062;2022-11-09T07:10:46;33.63;;;17.80;;
25838;SDS011;13669;50.186;27.062;2022-11-09T07:13:14;43.90;;;25.13;;
25838;SDS011;13669;50.186;27.062;2022-11-09T07:15:41;42.33;;;23.40;;
25838;SDS011;13669;50.186;27.062;2022-11-09T07:18:09;40.38;;;21.27;;
25838;SDS011;13669;50.186;27.062;2022-11-09T07:20:38;32.55;;;18.08;;
25838;SDS011;13669;50.186;27.062;2022-11-09T07:23:06;29.45;;;18.05;;
25838;SDS011;13669;50.186;27.062;2022-11-09T07:25:33;33.75;;;17.70;;
25838;SDS011;13669;50.186;27.062;2022-11-09T07:28:02;26.88;;;15.27;;
25838;SDS011;13669;50.186;27.062;2022-11-09T07:30:31;19.80;;;10.95;;
25838;SDS011;13669;50.186;27.062;2022-11-09T07:32:58;31.88;;;17.20;;
25838;SDS011;13669;50.186;27.062;2022-11-09T07:35:36;34.47;;;17.67;;
25838;SDS011;13669;50.186;27.062;2022-11-09T07:38:04;37.53;;;21.63;;
25838;SDS011;13669;50.186;27.062;2022-11-09T07:40:43;31.40;;;18.23;;
25838;SDS011;13669;50.186;27.062;2022-11-09T07:43:31;31.25;;;16.90;;
25838;SDS011;13669;50.186;27.062;2022-11-09T07:46:16;25.13;;;14.73;;
25838;SDS011;13669;50.186;27.062;2022-11-09T07:48:54;25.65;;;13.52;;
25838;SDS011;13669;50.186;27.062;2022-11-09T07:51:22;22.92;;;11.73;;
25838;SDS011;13669;50.186;27.062;2022-11-09T07:53:50;30.92;;;18.30;;
25838;SDS011;13669;50.186;27.062;2022-11-09T07:56:17;30.27;;;15.55;;
25838;SDS011;13669;50.186;27.062;2022-11-09T07:58:45;28.85;;;16.23;;
25838;SDS011;13669;50.186;27.062;2022-11-09T08:01:15;30.63;;;15.48;;
25838;SDS011;13669;50.186;27.062;2022-11-09T08:03:42;33.92;;;20.70;;
25838;SDS011;13669;50.186;27.062;2022-11-09T08:06:10;32.15;;;16.60;;
25838;SDS011;13669;50.186;27.062;2022-11-09T08:08:43;35.50;;;18.40;;
25838;SDS011;13669;50.186;27.062;2022-11-09T08:11:30;24.33;;;13.48;;
25838;SDS011;13669;50.186;27.062;2022-11-09T08:13:58;25.35;;;13.02;;
25838;SDS011;13669;50.186;27.062;2022-11-09T08:16:26;22.67;;;13.05;;
25838;SDS011;13669;50.186;27.062;2022-11-09T08:18:57;29.52;;;14.65;;
25838;SDS011;13669;50.186;27.062;2022-11-09T08:21:29;25.63;;;14.77;;
25838;SDS011;13669;50.186;27.062;2022-11-09T08:24:23;26.92;;;15.25;;
25838;SDS011;13669;50.186;27.062;2022-11-09T08:26:51;27.00;;;15.13;;
25838;SDS011;13669;50.186;27.062;2022-11-09T08:29:18;22.25;;;11.88;;
25838;SDS011;13669;50.186;27.062;2022-11-09T08:31:48;24.80;;;16.08;;
25838;SDS011;13669;50.186;27.062;2022-11-09T08:34:17;30.17;;;16.77;;
25838;SDS011;13669;50.186;27.062;2022-11-09T08:36:45;34.47;;;19.10;;
25838;SDS011;13669;50.186;27.062;2022-11-09T08:39:12;31.02;;;18.05;;
25838;SDS011;13669;50.186;27.062;2022-11-09T08:41:40;26.58;;;16.35;;
25838;SDS011;13669;50.186;27.062;2022-11-09T08:44:07;26.95;;;16.05;;
25838;SDS011;13669;50.186;27.062;2022-11-09T08:46:35;35.60;;;18.30;;
25838;SDS011;13669;50.186;27.062;2022-11-09T08:49:07;28.23;;;16.67;;
25838;SDS011;13669;50.186;27.062;2022-11-09T08:51:34;30.75;;;16.48;;
25838;SDS011;13669;50.186;27.062;2022-11-09T08:54:02;27.60;;;16.52;;
25838;SDS011;13669;50.186;27.062;2022-11-09T08:56:29;26.67;;;14.45;;
25838;SDS011;13669;50.186;27.062;2022-11-09T08:58:57;20.48;;;12.70;;
25838;SDS011;13669;50.186;27.062;2022-11-09T09:01:24;22.30;;;14.80;;
25838;SDS011;13669;50.186;27.062;2022-11-09T09:03:51;25.50;;;14.65;;
25838;SDS011;13669;50.186;27.062;2022-11-09T09:06:19;27.52;;;13.50;;
25838;SDS011;13669;50.186;27.062;2022-11-09T09:08:46;35.50;;;16.73;;
25838;SDS011;13669;50.186;27.062;2022-11-09T09:11:14;33.78;;;15.70;;
25838;SDS011;13669;50.186;27.062;2022-11-09T09:13:55;20.25;;;14.15;;
25838;SDS011;13669;50.186;27.062;2022-11-09T09:16:22;20.92;;;11.75;;
25838;SDS011;13669;50.186;27.062;2022-11-09T09:18:50;26.35;;;14.32;;
25838;SDS011;13669;50.186;27.062;2022-11-09T09:21:17;18.60;;;9.68;;
25838;SDS011;13669;50.186;27.062;2022-11-09T09:23:48;14.13;;;9.18;;
25838;SDS011;13669;50.186;27.062;2022-11-09T09:26:16;19.15;;;11.20;;
25838;SDS011;13669;50.186;27.062;2022-11-09T09:28:43;24.65;;;14.55;;
25838;SDS011;13669;50.186;27.062;2022-11-09T09:31:11;18.33;;;11.73;;
25838;SDS011;13669;50.186;27.062;2022-11-09T09:33:44;16.38;;;8.65;;
25838;SDS011;13669;50.186;27.062;2022-11-09T09:36:17;19.42;;;10.32;;
25838;SDS011;13669;50.186;27.062;2022-11-09T09:38:48;14.32;;;8.27;;
25838;SDS011;13669;50.186;27.062;2022-11-09T09:41:20;17.58;;;9.75;;
25838;SDS011;13669;50.186;27.062;2022-11-09T09:43:52;16.55;;;7.07;;
25838;SDS011;13669;50.186;27.062;2022-11-09T09:49:00;19.05;;;10.18;;
25838;SDS011;13669;50.186;27.062;2022-11-09T09:51:43;17.63;;;9.25;;
25838;SDS011;13669;50.186;27.062;2022-11-09T09:54:35;17.38;;;8.88;;
25838;SDS011;13669;50.186;27.062;2022-11-09T09:57:12;15.05;;;8.55;;
25838;SDS011;13669;50.186;27.062;2022-11-09T09:59:51;19.75;;;12.05;;
25838;SDS011;13669;50.186;27.062;2022-11-09T10:04:51;15.82;;;8.77;;
25838;SDS011;13669;50.186;27.062;2022-11-09T10:10:20;20.02;;;9.80;;
25838;SDS011;13669;50.186;27.062;2022-11-09T10:27:37;15.13;;;7.95;;
25838;SDS011;13669;50.186;27.062;2022-11-09T10:30:11;12.95;;;6.85;;
25838;SDS011;13669;50.186;27.062;2022-11-09T10:32:42;12.43;;;7.38;;
25838;SDS011;13669;50.186;27.062;2022-11-09T10:37:44;12.50;;;7.27;;
25838;SDS011;13669;50.186;27.062;2022-11-09T10:42:49;13.23;;;6.47;;
25838;SDS011;13669;50.186;27.062;2022-11-09T10:48:04;12.70;;;6.13;;
25838;SDS011;13669;50.186;27.062;2022-11-09T10:56:14;13.23;;;7.20;;
25838;SDS011;13669;50.186;27.062;2022-11-09T10:58:48;14.45;;;7.90;;
25838;SDS011;13669;50.186;27.062;2022-11-09T11:03:52;12.32;;;7.22;;
25838;SDS011;13669;50.186;27.062;2022-11-09T11:08:50;13.30;;;7.75;;
25838;SDS011;13669;50.186;27.062;2022-11-09T11:11:25;13.60;;;7.20;;
25838;SDS011;13669;50.186;27.062;2022-11-09T11:14:28;15.68;;;6.80;;
25838;SDS011;13669;50.186;27.062;2022-11-09T11:16:58;12.57;;;7.90;;
25838;SDS011;13669;50.186;27.062;2022-11-09T11:19:37;14.10;;;7.10;;
25838;SDS011;13669;50.186;27.062;2022-11-09T11:24:44;14.40;;;7.97;;
25838;SDS011;13669;50.186;27.062;2022-11-09T11:32:29;11.40;;;7.32;;
25838;SDS011;13669;50.186;27.062;2022-11-09T11:34:57;12.13;;;7.60;;
25838;SDS011;13669;50.186;27.062;2022-11-09T11:40:20;10.80;;;6.75;;
25838;SDS011;13669;50.186;27.062;2022-11-09T11:46:01;11.35;;;6.93;;
25838;SDS011;13669;50.186;27.062;2022-11-09T11:48:45;14.02;;;7.70;;
25838;SDS011;13669;50.186;27.062;2022-11-09T12:00:02;13.60;;;7.65;;
25838;SDS011;13669;50.186;27.062;2022-11-09T12:08:21;10.32;;;6.78;;
25838;SDS011;13669;50.186;27.062;2022-11-09T12:11:17;14.45;;;7.45;;
25838;SDS011;13669;50.186;27.062;2022-11-09T12:22:12;11.43;;;7.63;;
25838;SDS011;13669;50.186;27.062;2022-11-09T12:25:01;12.65;;;7.47;;
25838;SDS011;13669;50.186;27.062;2022-11-09T12:27:45;13.70;;;7.93;;
25838;SDS011;13669;50.186;27.062;2022-11-09T12:30:19;13.13;;;7.55;;
25838;SDS011;13669;50.186;27.062;2022-11-09T12:32:57;13.20;;;8.13;;
25838;SDS011;13669;50.186;27.062;2022-11-09T12:35:35;15.25;;;7.70;;
25838;SDS011;13669;50.186;27.062;2022-11-09T12:38:20;11.60;;;7.43;;
25838;SDS011;13669;50.186;27.062;2022-11-09T12:41:06;15.65;;;8.48;;
25838;SDS011;13669;50.186;27.062;2022-11-09T12:43:55;11.30;;;7.82;;
25838;SDS011;13669;50.186;27.062;2022-11-09T12:46:47;13.85;;;8.00;;
25838;SDS011;13669;50.186;27.062;2022-11-09T12:52:10;12.23;;;7.20;;
25838;SDS011;13669;50.186;27.062;2022-11-09T12:54:41;13.90;;;8.32;;
25838;SDS011;13669;50.186;27.062;2022-11-09T12:57:12;15.55;;;8.25;;
25838;SDS011;13669;50.186;27.062;2022-11-09T13:05:28;13.18;;;8.05;;
25838;SDS011;13669;50.186;27.062;2022-11-09T13:07:58;17.08;;;9.98;;
25838;SDS011;13669;50.186;27.062;2022-11-09T13:13:01;14.00;;;7.80;;
25838;SDS011;13669;50.186;27.062;2022-11-09T13:18:48;13.55;;;8.30;;
25838;SDS011;13669;50.186;27.062;2022-11-09T13:23:49;16.70;;;8.57;;
25838;SDS011;13669;50.186;27.062;2022-11-09T13:43:03;22.95;;;11.80;;
25838;SDS011;13669;50.186;27.062;2022-11-09T13:45:43;17.17;;;10.43;;
25838;SDS011;13669;50.186;27.062;2022-11-09T13:48:24;16.17;;;9.38;;
25838;SDS011;13669;50.186;27.062;2022-11-09T13:51:09;14.98;;;9.30;;
25838;SDS011;13669;50.186;27.062;2022-11-09T13:53:58;17.50;;;7.97;;
25838;SDS011;13669;50.186;27.062;2022-11-09T14:01:30;18.65;;;9.80;;
25838;SDS011;13669;50.186;27.062;2022-11-09T14:04:04;18.50;;;9.45;;
25838;SDS011;13669;50.186;27.062;2022-11-09T14:06:31;21.15;;;10.20;;
25838;SDS011;13669;50.186;27.062;2022-11-09T14:08:59;21.65;;;10.18;;
25838;SDS011;13669;50.186;27.062;2022-11-09T14:11:32;28.50;;;11.73;;
25838;SDS011;13669;50.186;27.062;2022-11-09T14:17:05;23.45;;;10.32;;
25838;SDS011;13669;50.186;27.062;2022-11-09T14:22:22;20.40;;;9.73;;
25838;SDS011;13669;50.186;27.062;2022-11-09T14:24:50;19.92;;;9.30;;
25838;SDS011;13669;50.186;27.062;2022-11-09T14:27:18;17.73;;;9.30;;
25838;SDS011;13669;50.186;27.062;2022-11-09T14:32:32;21.23;;;9.88;;
25838;SDS011;13669;50.186;27.062;2022-11-09T14:35:17;20.48;;;9.63;;
25838;SDS011;13669;50.186;27.062;2022-11-09T14:37:54;29.92;;;11.90;;
25838;SDS011;13669;50.186;27.062;2022-11-09T14:40:25;19.30;;;9.82;;
25838;SDS011;13669;50.186;27.062;2022-11-09T14:42:57;31.55;;;12.23;;
25838;SDS011;13669;50.186;27.062;2022-11-09T14:45:52;22.17;;;10.43;;
25838;SDS011;13669;50.186;27.062;2022-11-09T14:48:27;27.75;;;11.45;;
25838;SDS011;13669;50.186;27.062;2022-11-09T14:50:57;38.17;;;12.63;;
25838;SDS011;13669;50.186;27.062;2022-11-09T14:53:28;27.15;;;12.13;;
25838;SDS011;13669;50.186;27.062;2022-11-09T14:58:29;20.70;;;10.95;;
25838;SDS011;13669;50.186;27.062;2022-11-09T15:04:04;25.85;;;11.63;;
25838;SDS011;13669;50.186;27.062;2022-11-09T15:06:43;20.83;;;11.27;;
25838;SDS011;13669;50.186;27.062;2022-11-09T15:09:22;26.65;;;12.07;;
25838;SDS011;13669;50.186;27.062;2022-11-09T15:11:56;22.80;;;11.80;;
25838;SDS011;13669;50.186;27.062;2022-11-09T15:14:31;27.50;;;12.75;;
25838;SDS011;13669;50.186;27.062;2022-11-09T15:19:33;28.67;;;12.88;;
25838;SDS011;13669;50.186;27.062;2022-11-09T15:22:33;29.08;;;13.88;;
25838;SDS011;13669;50.186;27.062;2022-11-09T15:38:39;76.22;;;33.25;;
25838;SDS011;13669;50.186;27.062;2022-11-09T15:41:15;42.03;;;18.15;;
25838;SDS011;13669;50.186;27.062;2022-11-09T15:43:44;32.53;;;14.43;;
25838;SDS011;13669;50.186;27.062;2022-11-09T15:46:16;153.27;;;61.85;;
25838;SDS011;13669;50.186;27.062;2022-11-09T15:48:50;30.48;;;15.60;;
25838;SDS011;13669;50.186;27.062;2022-11-09T15:51:18;25.83;;;12.30;;
25838;SDS011;13669;50.186;27.062;2022-11-09T15:53:46;30.67;;;13.57;;
25838;SDS011;13669;50.186;27.062;2022-11-09T15:56:18;22.45;;;12.30;;
25838;SDS011;13669;50.186;27.062;2022-11-09T15:58:47;25.80;;;12.55;;
25838;SDS011;13669;50.186;27.062;2022-11-09T16:01:15;23.45;;;12.30;;
25838;SDS011;13669;50.186;27.062;2022-11-09T16:03:43;21.55;;;11.90;;
25838;SDS011;13669;50.186;27.062;2022-11-09T16:06:11;21.63;;;11.90;;
25838;SDS011;13669;50.186;27.062;2022-11-09T16:08:48;20.80;;;11.13;;
25838;SDS011;13669;50.186;27.062;2022-11-09T16:11:17;27.10;;;12.30;;
25838;SDS011;13669;50.186;27.062;2022-11-09T16:13:45;27.38;;;13.02;;
25838;SDS011;13669;50.186;27.062;2022-11-09T16:16:12;24.02;;;11.55;;
25838;SDS011;13669;50.186;27.062;2022-11-09T16:18:41;24.42;;;12.98;;
25838;SDS011;13669;50.186;27.062;2022-11-09T16:21:10;23.85;;;12.15;;
25838;SDS011;13669;50.186;27.062;2022-11-09T16:23:40;21.17;;;11.65;;
25838;SDS011;13669;50.186;27.062;2022-11-09T16:26:09;27.45;;;12.88;;
25838;SDS011;13669;50.186;27.062;2022-11-09T16:28:41;18.23;;;10.35;;
25838;SDS011;13669;50.186;27.062;2022-11-09T16:31:09;26.90;;;12.48;;
25838;SDS011;13669;50.186;27.062;2022-11-09T16:33:41;24.45;;;12.00;;
25838;SDS011;13669;50.186;27.062;2022-11-09T16:36:13;20.92;;;11.70;;
25838;SDS011;13669;50.186;27.062;2022-11-09T16:38:43;21.17;;;11.45;;
25838;SDS011;13669;50.186;27.062;2022-11-09T16:41:13;27.25;;;12.88;;
25838;SDS011;13669;50.186;27.062;2022-11-09T16:43:42;21.58;;;11.73;;
25838;SDS011;13669;50.186;27.062;2022-11-09T16:46:11;23.83;;;12.80;;
25838;SDS011;13669;50.186;27.062;2022-11-09T16:48:44;34.13;;;14.10;;
25838;SDS011;13669;50.186;27.062;2022-11-09T16:51:12;23.48;;;12.32;;
25838;SDS011;13669;50.186;27.062;2022-11-09T16:53:39;24.08;;;12.05;;
25838;SDS011;13669;50.186;27.062;2022-11-09T16:56:07;21.52;;;11.57;;
25838;SDS011;13669;50.186;27.062;2022-11-09T16:58:35;19.92;;;10.45;;
25838;SDS011;13669;50.186;27.062;2022-11-09T17:01:02;23.52;;;12.15;;
25838;SDS011;13669;50.186;27.062;2022-11-09T17:03:37;20.75;;;10.75;;
25838;SDS011;13669;50.186;27.062;2022-11-09T17:06:05;22.33;;;11.80;;
25838;SDS011;13669;50.186;27.062;2022-11-09T17:08:37;28.33;;;11.52;;
25838;SDS011;13669;50.186;27.062;2022-11-09T17:11:06;25.15;;;12.18;;
25838;SDS011;13669;50.186;27.062;2022-11-09T17:13:34;23.95;;;11.55;;
25838;SDS011;13669;50.186;27.062;2022-11-09T17:16:03;23.42;;;12.07;;
25838;SDS011;13669;50.186;27.062;2022-11-09T17:18:33;21.33;;;11.82;;
25838;SDS011;13669;50.186;27.062;2022-11-09T17:21:01;23.48;;;12.50;;
25838;SDS011;13669;50.186;27.062;2022-11-09T17:23:28;18.67;;;10.77;;
25838;SDS011;13669;50.186;27.062;2022-11-09T17:25:58;22.50;;;12.27;;
25838;SDS011;13669;50.186;27.062;2022-11-09T17:28:28;20.75;;;12.25;;
25838;SDS011;13669;50.186;27.062;2022-11-09T17:30:57;20.92;;;12.00;;
25838;SDS011;13669;50.186;27.062;2022-11-09T17:33:24;24.55;;;13.05;;
25838;SDS011;13669;50.186;27.062;2022-11-09T17:35:58;23.27;;;12.95;;
25838;SDS011;13669;50.186;27.062;2022-11-09T17:38:27;22.77;;;12.77;;
25838;SDS011;13669;50.186;27.062;2022-11-09T17:41:02;24.38;;;12.70;;
25838;SDS011;13669;50.186;27.062;2022-11-09T17:43:32;28.60;;;12.55;;
25838;SDS011;13669;50.186;27.062;2022-11-09T17:48:48;21.50;;;12.23;;
25838;SDS011;13669;50.186;27.062;2022-11-09T17:51:17;25.55;;;12.27;;
25838;SDS011;13669;50.186;27.062;2022-11-09T17:53:45;27.27;;;13.07;;
25838;SDS011;13669;50.186;27.062;2022-11-09T17:56:13;26.65;;;12.88;;
25838;SDS011;13669;50.186;27.062;2022-11-09T17:58:41;22.25;;;11.10;;
25838;SDS011;13669;50.186;27.062;2022-11-09T18:01:11;22.73;;;11.60;;
25838;SDS011;13669;50.186;27.062;2022-11-09T18:03:42;25.38;;;12.70;;
25838;SDS011;13669;50.186;27.062;2022-11-09T18:06:13;25.13;;;11.65;;
25838;SDS011;13669;50.186;27.062;2022-11-09T18:08:45;23.75;;;11.82;;
25838;SDS011;13669;50.186;27.062;2022-11-09T18:11:33;24.08;;;12.63;;
25838;SDS011;13669;50.186;27.062;2022-11-09T18:14:00;25.90;;;12.13;;
25838;SDS011;13669;50.186;27.062;2022-11-09T18:16:29;28.05;;;13.43;;
25838;SDS011;13669;50.186;27.062;2022-11-09T18:19:00;28.48;;;13.55;;
25838;SDS011;13669;50.186;27.062;2022-11-09T18:21:30;31.60;;;14.85;;
25838;SDS011;13669;50.186;27.062;2022-11-09T18:23:59;22.10;;;11.73;;
25838;SDS011;13669;50.186;27.062;2022-11-09T18:26:26;30.13;;;13.48;;
25838;SDS011;13669;50.186;27.062;2022-11-09T18:28:55;25.25;;;13.50;;
25838;SDS011;13669;50.186;27.062;2022-11-09T18:31:22;20.42;;;11.75;;
25838;SDS011;13669;50.186;27.062;2022-11-09T18:33:50;30.77;;;14.30;;
25838;SDS011;13669;50.186;27.062;2022-11-09T18:36:18;22.63;;;11.73;;
25838;SDS011;13669;50.186;27.062;2022-11-09T18:38:47;28.92;;;13.95;;
25838;SDS011;13669;50.186;27.062;2022-11-09T18:41:18;24.90;;;12.27;;
25838;SDS011;13669;50.186;27.062;2022-11-09T18:43:50;26.60;;;12.77;;
25838;SDS011;13669;50.186;27.062;2022-11-09T18:46:20;25.10;;;13.15;;
25838;SDS011;13669;50.186;27.062;2022-11-09T18:48:51;25.98;;;12.88;;
25838;SDS011;13669;50.186;27.062;2022-11-09T18:51:20;25.60;;;12.57;;
25838;SDS011;13669;50.186;27.062;2022-11-09T18:53:48;24.23;;;13.05;;
25838;SDS011;13669;50.186;27.062;2022-11-09T18:56:22;30.95;;;13.27;;
25838;SDS011;13669;50.186;27.062;2022-11-09T18:58:51;29.23;;;13.68;;
25838;SDS011;13669;50.186;27.062;2022-11-09T19:01:21;25.60;;;13.23;;
25838;SDS011;13669;50.186;27.062;2022-11-09T19:03:50;24.65;;;13.32;;
25838;SDS011;13669;50.186;27.062;2022-11-09T19:06:24;24.15;;;13.32;;
25838;SDS011;13669;50.186;27.062;2022-11-09T19:08:52;26.48;;;13.88;;
25838;SDS011;13669;50.186;27.062;2022-11-09T19:11:38;28.35;;;13.75;;